Time;durP1;ratioP1;P1;durP2;ratioP2;P2;SDS_P1;SDS_P2;PMS_P1;PMS_P2;Temp;Humidity;BMP_temperature;BMP_pressure;BME280_temperature;BME280_humidity;BME280_pressure;Samples;Min_cycle;Max_cycle;Signal;HPM_P1;HPM_P2
2023/03/17 00:00:04;;;;;;;40.80;19.20;;;;;;;-2.29;78.35;101352.21;102483;279;114849;-55
2023/03/17 00:03:05;;;;;;;40.00;20.40;;;;;;;-2.34;78.49;101353.41;102486;279;95144;-56
2023/03/17 00:05:51;;;;;;;39.80;19.70;;;;;;;-2.36;78.61;101357.53;102432;279;97598;-61
2023/03/17 00:08:34;;;;;;;39.90;19.50;;;;;;;-2.35;78.64;101363.87;102514;279;120722;-62
2023/03/17 00:11:18;;;;;;;44.10;20.70;;;;;;;-2.39;78.66;101366.39;102505;279;105134;-61
2023/03/17 00:14:00;;;;;;;40.20;20.40;;;;;;;-2.42;78.74;101363.92;102516;279;114433;-61
2023/03/17 00:16:41;;;;;;;36.50;19.50;;;;;;;-2.43;78.67;101361.63;102496;279;92602;-55
2023/03/17 00:19:20;;;;;;;39.00;19.40;;;;;;;-2.44;78.55;101362.03;102518;279;97817;-55
2023/03/17 00:22:05;;;;;;;43.10;20.30;;;;;;;-2.49;78.66;101357.40;102528;279;120556;-57
2023/03/17 00:24:50;;;;;;;37.60;19.20;;;;;;;-2.55;78.67;101346.08;102521;279;105479;-57
2023/03/17 00:27:27;;;;;;;42.10;19.90;;;;;;;-2.59;78.78;101343.15;102520;279;113608;-55
2023/03/17 00:30:02;;;;;;;;;;;;;;;-2.63;78.80;101345.31;102563;279;96122;-56
2023/03/17 00:32:39;;;;;;;38.90;19.90;;;;;;;-2.68;79.00;101342.94;102550;279;98168;-56
2023/03/17 00:35:23;;;;;;;41.20;20.00;;;;;;;-2.70;79.00;101340.02;102529;279;120282;-61
2023/03/17 00:38:02;;;;;;;44.80;20.40;;;;;;;-2.68;79.05;101337.46;102497;279;105673;-61
2023/03/17 00:40:42;;;;;;;35.90;19.90;;;;;;;-2.69;79.16;101335.03;102518;279;114088;-56
2023/03/17 00:43:23;;;;;;;42.70;20.20;;;;;;;-2.70;79.12;101334.05;102475;279;95984;-54
2023/03/17 00:45:58;;;;;;;40.00;19.40;;;;;;;-2.67;79.18;101329.67;102540;279;97389;-59
2023/03/17 00:48:39;;;;;;;40.90;21.00;;;;;;;-2.70;79.26;101328.23;102519;279;120381;-60
2023/03/17 00:51:19;;;;;;;35.30;19.20;;;;;;;-2.75;79.32;101324.95;102525;279;106186;-56
2023/03/17 00:54:06;;;;;;;46.10;21.60;;;;;;;-2.77;79.48;101323.64;102506;279;115658;-56
2023/03/17 00:56:43;;;;;;;38.80;21.10;;;;;;;-2.80;79.47;101321.71;102520;279;94247;-61
2023/03/17 00:59:28;;;;;;;38.70;21.00;;;;;;;-2.85;79.49;101319.86;102532;279;97727;-60
2023/03/17 01:02:09;;;;;;;37.40;21.20;;;;;;;-2.87;79.41;101320.70;102519;279;121764;-58
2023/03/17 01:04:48;;;;;;;40.90;21.50;;;;;;;-2.87;79.43;101315.59;102521;279;104722;-56
2023/03/17 01:07:24;;;;;;;39.10;21.00;;;;;;;-2.85;79.45;101314.05;102501;279;114523;-56
2023/03/17 01:10:01;;;;;;;46.30;21.80;;;;;;;-2.86;79.57;101312.19;102547;279;95865;-58
2023/03/17 01:12:39;;;;;;;39.30;20.40;;;;;;;-2.90;79.65;101311.00;102524;279;96700;-57
2023/03/17 01:15:14;;;;;;;41.70;21.60;;;;;;;-2.91;79.68;101307.69;102527;279;121857;-56
2023/03/17 01:17:51;;;;;;;41.70;21.10;;;;;;;-2.89;79.68;101307.39;102405;279;105556;-55
2023/03/17 01:20:29;;;;;;;39.40;21.60;;;;;;;-2.91;79.79;101304.69;102408;279;114277;-60
2023/03/17 01:23:07;;;;;;;41.70;21.40;;;;;;;-2.91;79.80;101300.09;102506;279;93754;-60
2023/03/17 01:25:49;;;;;;;40.40;21.40;;;;;;;-2.97;79.85;101297.78;102531;279;97137;-57
2023/03/17 01:28:32;;;;;;;41.60;22.30;;;;;;;-3.01;79.87;101297.64;102460;279;120047;-57
2023/03/17 01:31:09;;;;;;;46.00;22.20;;;;;;;-3.03;79.88;101295.42;102514;279;105694;-60
2023/03/17 01:33:55;;;;;;;45.10;22.60;;;;;;;-3.07;79.97;101301.64;102437;279;113442;-60
2023/03/17 01:36:39;;;;;;;44.70;21.20;;;;;;;-3.07;80.10;101301.81;102517;279;96015;-56
2023/03/17 01:39:15;;;;;;;42.70;22.50;;;;;;;-3.04;80.07;101299.02;102519;279;98156;-56
2023/03/17 01:42:01;;;;;;;41.00;23.40;;;;;;;-3.06;80.11;101306.52;102521;279;120338;-60
2023/03/17 01:44:50;;;;;;;42.60;21.70;;;;;;;-3.05;80.21;101306.30;102488;279;104861;-60
2023/03/17 01:47:29;;;;;;;43.00;23.30;;;;;;;-3.04;80.21;101307.14;102496;279;114468;-61
2023/03/17 01:50:08;;;;;;;46.50;23.70;;;;;;;-3.04;80.20;101309.04;102517;279;93535;-57
2023/03/17 01:52:48;;;;;;;42.30;23.70;;;;;;;-3.05;80.28;101310.17;102510;279;97045;-56
2023/03/17 01:55:29;;;;;;;46.40;23.90;;;;;;;-3.08;80.21;101315.77;102514;279;118991;-58
2023/03/17 01:58:13;;;;;;;44.90;22.50;;;;;;;-3.11;80.17;101314.38;102485;279;106106;-58
2023/03/17 02:00:48;;;;;;;45.80;22.90;;;;;;;-3.16;80.28;101314.66;102497;279;114455;-62
2023/03/17 02:03:21;;;;;;;;;;;;;;;-3.18;80.27;101314.23;102509;279;95633;-62
2023/03/17 02:06:06;;;;;;;48.80;22.50;;;;;;;-3.20;80.21;101310.98;102484;279;97152;-58
2023/03/17 02:08:47;;;;;;;46.40;22.10;;;;;;;-3.21;80.33;101310.30;102506;279;119566;-57
2023/03/17 02:11:26;;;;;;;44.20;22.70;;;;;;;-3.22;80.30;101308.09;102563;279;104349;-57
2023/03/17 02:14:08;;;;;;;41.90;22.40;;;;;;;-3.18;80.30;101313.72;102489;279;114088;-56
2023/03/17 02:16:48;;;;;;;42.00;23.40;;;;;;;-3.21;80.42;101318.95;102538;279;94137;-59
2023/03/17 02:19:29;;;;;;;46.70;24.70;;;;;;;-3.21;80.44;101322.83;102524;279;95866;-60
2023/03/17 02:22:11;;;;;;;43.20;23.90;;;;;;;-3.23;80.45;101321.38;102551;279;120016;-60
2023/03/17 02:24:50;;;;;;;42.90;23.50;;;;;;;-3.24;80.40;101320.86;102510;279;106181;-57
2023/03/17 02:27:30;;;;;;;43.10;22.20;;;;;;;-3.27;80.33;101321.91;102345;280;112561;-55
2023/03/17 02:30:10;;;;;;;40.60;23.00;;;;;;;-3.30;80.40;101325.79;102529;279;95504;-57
2023/03/17 02:32:50;;;;;;;40.50;21.40;;;;;;;-3.34;80.43;101329.49;102522;279;97674;-58
2023/03/17 02:35:31;;;;;;;48.70;25.10;;;;;;;-3.39;80.48;101328.73;102537;279;119887;-58
2023/03/17 02:38:14;;;;;;;44.20;23.60;;;;;;;-3.42;80.51;101323.62;102494;279;105934;-57
2023/03/17 02:40:56;;;;;;;42.10;24.20;;;;;;;-3.45;80.62;101321.09;102530;279;113499;-57
2023/03/17 02:43:36;;;;;;;48.90;23.90;;;;;;;-3.42;80.59;101325.52;102527;279;95548;-56
2023/03/17 02:46:13;;;;;;;46.70;23.70;;;;;;;-3.40;80.67;101325.61;102554;267;96492;-60
2023/03/17 02:48:50;;;;;;;44.10;22.70;;;;;;;-3.42;80.75;101323.76;102473;279;120709;-60
2023/03/17 02:51:29;;;;;;;47.80;23.70;;;;;;;-3.45;80.76;101327.08;102516;279;105879;-62
2023/03/17 02:54:13;;;;;;;46.10;23.50;;;;;;;-3.47;80.79;101335.10;102512;279;114327;-62
2023/03/17 02:56:50;;;;;;;49.70;24.30;;;;;;;-3.52;80.77;101336.43;102544;279;96020;-55
2023/03/17 02:59:27;;;;;;;43.80;23.00;;;;;;;-3.54;80.70;101339.52;102520;279;97457;-56
2023/03/17 03:02:08;;;;;;;42.70;23.20;;;;;;;-3.56;80.82;101341.73;102528;279;121476;-58
2023/03/17 03:04:52;;;;;;;39.80;22.10;;;;;;;-3.58;80.82;101339.69;102505;279;104875;-61
2023/03/17 03:07:37;;;;;;;47.80;23.60;;;;;;;-3.58;80.79;101346.43;102498;279;114734;-60
2023/03/17 03:10:14;;;;;;;47.80;22.40;;;;;;;-3.60;80.89;101350.73;102549;279;94571;-57
2023/03/17 03:12:52;;;;;;;49.90;23.30;;;;;;;-3.61;80.96;101356.08;102533;279;97955;-57
2023/03/17 03:15:28;;;;;;;47.50;25.00;;;;;;;-3.60;81.03;101363.43;102488;279;119547;-59
2023/03/17 03:18:08;;;;;;;46.50;24.10;;;;;;;-3.59;81.03;101366.52;102497;279;104752;-59
2023/03/17 03:20:50;;;;;;;45.10;22.90;;;;;;;-3.61;80.98;101362.22;102516;279;114726;-55
2023/03/17 03:23:37;;;;;;;46.70;24.20;;;;;;;-3.64;81.03;101369.23;102477;279;94405;-56
2023/03/17 03:26:20;;;;;;;48.00;23.50;;;;;;;-3.67;80.99;101373.95;102506;279;98423;-57
2023/03/17 03:29:01;;;;;;;45.70;23.30;;;;;;;-3.72;81.10;101373.86;102475;279;121120;-57
2023/03/17 03:31:38;;;;;;;40.30;22.70;;;;;;;-3.73;81.03;101369.52;102526;278;106043;-63
2023/03/17 03:34:20;;;;;;;42.20;22.80;;;;;;;-3.75;81.01;101366.63;102489;279;115375;-61
2023/03/17 03:36:59;;;;;;;42.40;23.40;;;;;;;-3.78;81.10;101368.86;102514;279;94755;-61
2023/03/17 03:39:46;;;;;;;41.80;22.40;;;;;;;-3.77;81.23;101373.27;102504;283;98140;-61
2023/03/17 03:42:28;;;;;;;40.50;21.60;;;;;;;-3.77;81.25;101372.56;102517;279;120541;-55
2023/03/17 03:45:09;;;;;;;48.80;23.50;;;;;;;-3.74;81.26;101374.64;102532;279;105536;-57
2023/03/17 03:47:51;;;;;;;41.00;22.10;;;;;;;-3.71;81.34;101375.20;102530;279;113833;-58
2023/03/17 03:50:31;;;;;;;46.20;24.40;;;;;;;-3.70;81.27;101372.33;102494;279;93131;-62
2023/03/17 03:53:19;;;;;;;45.80;23.70;;;;;;;-3.73;81.35;101361.95;102500;268;97443;-63
2023/03/17 03:56:02;;;;;;;44.10;24.90;;;;;;;-3.76;81.29;101359.09;102522;279;121325;-57
2023/03/17 03:58:46;;;;;;;44.60;23.40;;;;;;;-3.78;81.23;101359.91;102519;279;105427;-57
2023/03/17 04:01:23;;;;;;;48.50;25.10;;;;;;;-3.80;81.30;101358.44;102540;279;114321;-56
2023/03/17 04:04:03;;;;;;;46.00;23.10;;;;;;;-3.84;81.45;101357.23;102391;280;94871;-55
2023/03/17 04:06:45;;;;;;;44.30;23.50;;;;;;;-3.87;81.42;101353.32;102519;279;96652;-56
2023/03/17 04:09:21;;;;;;;45.20;23.00;;;;;;;-3.89;81.51;101355.70;102486;279;121520;-55
2023/03/17 04:12:01;;;;;;;41.70;23.80;;;;;;;-3.89;81.51;101352.01;102539;279;106215;-62
2023/03/17 04:14:37;;;;;;;41.70;22.60;;;;;;;-3.89;81.61;101355.88;102491;279;113696;-63
2023/03/17 04:17:14;;;;;;;47.50;25.40;;;;;;;-3.89;81.76;101350.77;102520;279;94051;-62
2023/03/17 04:19:52;;;;;;;45.40;24.70;;;;;;;-3.89;81.76;101355.52;102527;279;98303;-56
2023/03/17 04:22:30;;;;;;;46.40;25.90;;;;;;;-3.90;81.79;101355.77;102484;279;120681;-57
2023/03/17 04:25:06;;;;;;;44.80;24.60;;;;;;;-3.92;81.83;101353.77;102527;279;104532;-58
2023/03/17 04:27:47;;;;;;;45.60;24.50;;;;;;;-3.94;81.81;101360.54;102519;279;114625;-56
2023/03/17 04:30:30;;;;;;;44.20;25.20;;;;;;;-3.95;81.91;101362.86;102533;279;93717;-59
2023/03/17 04:33:09;;;;;;;43.70;25.20;;;;;;;-3.98;81.89;101361.41;102504;279;98054;-60
2023/03/17 04:35:53;;;;;;;41.70;23.80;;;;;;;-3.98;81.86;101362.69;102544;279;120407;-60
2023/03/17 04:38:29;;;;;;;39.40;22.20;;;;;;;-4.00;81.98;101362.92;102377;280;104011;-60
2023/03/17 04:41:08;;;;;;;43.50;23.90;;;;;;;-3.99;81.94;101370.94;102514;279;114566;-58
2023/03/17 04:43:48;;;;;;;42.20;23.00;;;;;;;-3.98;81.96;101369.00;102460;279;94791;-57
2023/03/17 04:46:28;;;;;;;40.70;22.60;;;;;;;-3.97;82.01;101373.67;102549;279;97756;-57
2023/03/17 04:49:05;;;;;;;39.20;21.90;;;;;;;-3.94;82.09;101374.42;102504;279;120115;-57
2023/03/17 04:51:43;;;;;;;39.90;22.80;;;;;;;-3.91;82.12;101374.11;102597;279;105244;-59
2023/03/17 04:54:22;;;;;;;40.80;22.70;;;;;;;-3.88;82.17;101361.48;102476;279;114553;-59
2023/03/17 04:57:04;;;;;;;43.20;22.50;;;;;;;-3.84;82.22;101361.23;102510;279;95185;-60
2023/03/17 04:59:46;;;;;;;44.10;25.10;;;;;;;-3.76;82.22;101354.73;102508;279;98569;-60
2023/03/17 05:02:26;;;;;;;39.40;22.70;;;;;;;-3.74;82.40;101344.77;102494;279;121393;-56
2023/03/17 05:05:04;;;;;;;41.70;23.10;;;;;;;-3.68;82.34;101351.14;102561;279;105818;-58
2023/03/17 05:07:47;;;;;;;37.20;23.40;;;;;;;-3.64;82.46;101357.45;102539;279;114098;-57
2023/03/17 05:10:41;;;;;;;40.80;22.90;;;;;;;-3.56;82.49;101356.85;102462;279;95931;-57
2023/03/17 05:13:19;;;;;;;42.30;24.10;;;;;;;-3.47;82.65;101360.80;102475;279;98301;-57
2023/03/17 05:15:59;;;;;;;42.00;24.30;;;;;;;-3.32;82.83;101373.59;102493;279;120723;-59
2023/03/17 05:18:42;;;;;;;40.10;24.10;;;;;;;-3.16;82.82;101377.89;102551;279;105679;-56
2023/03/17 05:21:24;;;;;;;42.10;24.20;;;;;;;-3.04;82.90;101385.73;102525;279;114839;-61
2023/03/17 05:24:02;;;;;;;36.90;22.60;;;;;;;-2.98;82.98;101387.71;102485;279;95725;-62
2023/03/17 05:26:46;;;;;;;42.80;25.10;;;;;;;-2.85;83.09;101387.91;102531;279;97387;-60
2023/03/17 05:29:26;;;;;;;40.60;23.20;;;;;;;-2.64;83.13;101389.98;102522;279;120472;-59
2023/03/17 05:32:06;;;;;;;35.30;22.70;;;;;;;-2.49;83.05;101393.20;102519;279;105896;-59
2023/03/17 05:34:48;;;;;;;40.40;22.70;;;;;;;-2.41;82.94;101393.61;102543;279;114291;-57
2023/03/17 05:37:33;;;;;;;40.10;23.20;;;;;;;-2.33;82.92;101395.34;102547;279;93200;-63
2023/03/17 05:40:13;;;;;;;35.90;22.40;;;;;;;-2.25;83.12;101398.08;102596;279;97394;-56
2023/03/17 05:42:59;;;;;;;38.50;23.10;;;;;;;-2.16;83.08;101399.30;102542;279;120739;-57
2023/03/17 05:45:40;;;;;;;45.00;25.50;;;;;;;-2.00;83.09;101408.09;102557;279;106334;-58
2023/03/17 05:48:21;;;;;;;37.90;23.90;;;;;;;-1.78;83.19;101403.90;102487;279;115842;-56
2023/03/17 05:51:03;;;;;;;46.90;25.10;;;;;;;-1.48;83.29;101413.84;102517;279;96542;-62
2023/03/17 05:53:46;;;;;;;42.40;25.70;;;;;;;-0.62;84.03;101407.75;102531;279;96450;-63
2023/03/17 05:56:25;;;;;;;45.80;29.60;;;;;;;1.43;84.29;101401.40;102580;279;120161;-56
2023/03/17 05:59:08;;;;;;;40.00;26.00;;;;;;;3.91;83.02;101394.95;102539;279;104484;-57
2023/03/17 06:01:43;;;;;;;34.40;23.70;;;;;;;6.05;81.60;101390.09;102518;279;113311;-58
2023/03/17 06:04:19;;;;;;;36.60;25.80;;;;;;;7.90;80.60;101385.52;102495;279;93146;-58
2023/03/17 06:07:04;;;;;;;37.60;25.10;;;;;;;9.38;78.09;101384.23;102521;279;97863;-56
2023/03/17 06:09:44;;;;;;;31.80;22.30;;;;;;;10.13;74.74;101381.15;102479;279;119196;-57
2023/03/17 06:12:25;;;;;;;32.60;22.90;;;;;;;10.82;73.22;101373.34;102512;279;105235;-56
2023/03/17 06:15:07;;;;;;;29.00;21.80;;;;;;;11.07;71.66;101372.87;102524;279;114379;-57
2023/03/17 06:17:50;;;;;;;29.60;20.60;;;;;;;9.86;69.37;101365.85;102519;279;94209;-55
2023/03/17 06:20:29;;;;;;;25.70;18.80;;;;;;;8.11;69.10;101372.13;102516;279;98033;-61
2023/03/17 06:23:06;;;;;;;29.80;19.60;;;;;;;7.25;68.76;101372.41;102496;279;119949;-62
2023/03/17 06:25:43;;;;;;;30.20;20.30;;;;;;;6.92;69.23;101376.06;102527;279;104644;-62
2023/03/17 06:28:27;;;;;;;29.50;19.00;;;;;;;7.17;69.34;101376.04;102498;279;114885;-63
2023/03/17 06:31:07;;;;;;;29.20;19.20;;;;;;;7.23;68.97;101379.13;102526;279;94976;-57
2023/03/17 06:33:48;;;;;;;31.40;19.90;;;;;;;7.54;69.15;101379.16;102510;279;97723;-59
2023/03/17 06:36:26;;;;;;;27.70;18.60;;;;;;;7.57;68.30;101381.33;102543;279;120936;-57
2023/03/17 06:39:05;;;;;;;27.20;18.70;;;;;;;7.16;67.92;101390.64;102477;279;106063;-56
2023/03/17 06:41:50;;;;;;;23.90;15.90;;;;;;;6.94;67.00;101395.29;102546;279;114667;-58
2023/03/17 06:44:31;;;;;;;23.40;16.10;;;;;;;6.99;67.07;101393.48;102478;279;93754;-57
2023/03/17 06:47:15;;;;;;;23.70;16.10;;;;;;;7.44;66.40;101389.77;102502;279;95660;-57
2023/03/17 06:49:59;;;;;;;23.30;14.70;;;;;;;8.90;66.27;101387.72;102562;279;121709;-56
2023/03/17 06:52:41;;;;;;;24.60;14.60;;;;;;;9.69;65.48;101386.59;102519;279;106238;-56
2023/03/17 06:55:18;;;;;;;22.30;15.00;;;;;;;10.23;64.76;101385.77;102540;279;115147;-58
2023/03/17 06:57:57;;;;;;;20.50;13.20;;;;;;;9.53;62.96;101387.31;102499;279;93569;-58
2023/03/17 07:00:39;;;;;;;17.20;12.10;;;;;;;8.81;62.78;101388.17;102542;279;97433;-62
2023/03/17 07:03:24;;;;;;;20.60;13.50;;;;;;;8.79;62.86;101390.89;102453;279;120918;-62
2023/03/17 07:06:00;;;;;;;;;;;;;;;9.58;62.51;101386.32;102491;279;105215;-58
2023/03/17 07:08:51;;;;;;;16.70;11.60;;;;;;;10.43;61.79;101388.60;102518;279;114673;-57
2023/03/17 07:11:36;;;;;;;17.20;11.40;;;;;;;10.99;59.83;101382.09;102486;279;94833;-60
2023/03/17 07:14:17;;;;;;;17.10;11.00;;;;;;;10.88;59.19;101382.79;102514;279;97764;-57
2023/03/17 07:17:00;;;;;;;15.30;11.50;;;;;;;10.71;58.70;101377.29;102523;279;119780;-62
2023/03/17 07:19:39;;;;;;;15.30;10.60;;;;;;;10.83;57.55;101376.54;102483;279;105784;-63
2023/03/17 07:22:15;;;;;;;17.60;11.20;;;;;;;11.31;56.21;101376.19;102523;279;114355;-61
2023/03/17 07:24:56;;;;;;;17.00;12.00;;;;;;;11.65;56.17;101371.97;102531;279;93157;-61
2023/03/17 07:27:34;;;;;;;17.90;12.10;;;;;;;12.35;54.69;101367.71;102526;279;97353;-60
2023/03/17 07:30:17;;;;;;;16.40;11.70;;;;;;;13.49;54.68;101364.42;102553;279;120194;-58
2023/03/17 07:33:02;;;;;;;15.00;11.80;;;;;;;13.67;54.11;101363.31;102491;279;105977;-58
2023/03/17 07:35:39;;;;;;;21.40;12.80;;;;;;;14.03;51.95;101366.84;102221;279;355365;-60
2023/03/17 07:38:17;;;;;;;19.10;13.40;;;;;;;14.20;53.58;101360.89;102460;279;92279;-62
2023/03/17 07:40:52;;;;;;;17.10;13.10;;;;;;;15.18;52.19;101359.98;102516;279;98335;-58
2023/03/17 07:43:30;;;;;;;17.30;12.30;;;;;;;16.12;50.17;101352.26;102505;279;118995;-57
2023/03/17 07:46:13;;;;;;;17.00;12.40;;;;;;;16.93;48.53;101350.49;102518;279;106135;-58
2023/03/17 07:48:55;;;;;;;15.40;11.90;;;;;;;17.69;49.24;101350.89;102493;279;113595;-58
2023/03/17 07:51:35;;;;;;;15.10;11.60;;;;;;;17.92;46.27;101352.64;102516;279;95208;-58
2023/03/17 07:54:17;;;;;;;13.70;11.00;;;;;;;18.25;46.27;101355.31;102512;279;98082;-57
2023/03/17 07:56:58;;;;;;;13.50;11.00;;;;;;;18.74;44.61;101355.70;102522;279;120195;-59
2023/03/17 07:59:37;;;;;;;15.40;11.10;;;;;;;18.96;43.55;101347.39;102530;279;107017;-61
2023/03/17 08:02:16;;;;;;;13.00;10.60;;;;;;;19.29;44.76;101342.97;102479;279;114055;-63
2023/03/17 08:04:52;;;;;;;12.40;10.40;;;;;;;19.62;43.42;101343.42;102544;268;95174;-56
2023/03/17 08:07:30;;;;;;;14.50;11.30;;;;;;;19.85;41.69;101341.08;102556;279;97113;-57
2023/03/17 08:10:12;;;;;;;13.20;10.30;;;;;;;20.22;40.91;101338.09;102406;279;120606;-58
2023/03/17 08:12:52;;;;;;;11.70;10.00;;;;;;;20.56;40.61;101331.54;102506;279;105439;-59
2023/03/17 08:15:30;;;;;;;12.30;9.90;;;;;;;20.04;39.14;101332.17;102513;279;115153;-57
2023/03/17 08:18:04;;;;;;;14.10;11.00;;;;;;;20.24;39.39;101333.21;102518;279;93562;-57
2023/03/17 08:20:37;;;;;;;;;;;;;;;20.30;37.81;101333.65;102526;279;97788;-61
2023/03/17 08:23:22;;;;;;;11.20;9.70;;;;;;;20.50;38.65;101339.68;102512;279;119971;-62
2023/03/17 08:26:00;;;;;;;13.80;9.60;;;;;;;20.55;38.58;101344.04;102536;279;105480;-60
2023/03/17 08:28:38;;;;;;;12.40;9.70;;;;;;;19.48;36.93;101350.62;102512;279;114477;-61
2023/03/17 08:31:21;;;;;;;12.00;9.10;;;;;;;18.52;37.93;101354.49;102502;279;94288;-62
2023/03/17 08:33:58;;;;;;;11.70;9.40;;;;;;;17.67;36.46;101356.69;102541;279;97678;-58
2023/03/17 08:36:36;;;;;;;13.00;9.80;;;;;;;16.62;36.79;101353.67;102507;279;120603;-56
2023/03/17 08:39:16;;;;;;;12.90;8.90;;;;;;;15.68;38.19;101362.97;102521;279;105194;-57
2023/03/17 08:41:51;;;;;;;10.20;8.20;;;;;;;15.32;38.36;101376.12;102369;280;114596;-58
2023/03/17 08:44:30;;;;;;;10.20;8.10;;;;;;;15.75;39.58;101377.65;102517;279;95179;-58
2023/03/17 08:47:12;;;;;;;12.90;8.70;;;;;;;16.50;38.72;101371.40;102518;279;98241;-58
2023/03/17 08:49:49;;;;;;;10.90;7.90;;;;;;;16.27;37.16;101372.26;102560;279;119878;-60
2023/03/17 08:52:32;;;;;;;12.00;8.40;;;;;;;16.00;37.55;101372.79;102515;279;104510;-58
2023/03/17 08:55:09;;;;;;;11.50;7.90;;;;;;;16.32;37.23;101372.36;102537;279;114624;-64
2023/03/17 08:57:51;;;;;;;9.20;7.80;;;;;;;16.73;38.37;101373.20;102487;279;94589;-63
2023/03/17 09:00:32;;;;;;;9.30;7.20;;;;;;;17.22;37.01;101371.95;102542;279;97640;-58
2023/03/17 09:03:11;;;;;;;9.40;6.90;;;;;;;17.74;35.49;101369.59;102374;279;121277;-58
2023/03/17 09:05:51;;;;;;;12.10;8.80;;;;;;;18.07;36.66;101369.52;102509;279;105632;-57
2023/03/17 09:08:30;;;;;;;11.80;7.60;;;;;;;18.50;36.48;101370.55;102524;279;114451;-57
2023/03/17 09:11:07;;;;;;;10.70;7.30;;;;;;;18.53;34.60;101382.08;102484;279;95080;-57
2023/03/17 09:13:46;;;;;;;9.30;6.80;;;;;;;18.50;35.58;101380.56;102529;279;97404;-57
2023/03/17 09:16:25;;;;;;;6.80;4.50;;;;;;;18.88;34.62;101383.41;102523;279;120919;-59
2023/03/17 09:19:04;;;;;;;6.00;4.80;;;;;;;19.01;35.89;101380.39;102537;279;105093;-56
2023/03/17 09:21:46;;;;;;;7.60;4.60;;;;;;;19.59;35.70;101378.08;102505;279;114008;-61
2023/03/17 09:24:22;;;;;;;7.80;5.40;;;;;;;19.66;35.23;101376.40;102498;279;94226;-59
2023/03/17 09:27:00;;;;;;;6.00;4.70;;;;;;;19.48;33.44;101376.77;102594;279;98048;-56
2023/03/17 09:29:42;;;;;;;7.00;4.30;;;;;;;19.26;33.86;101372.20;102533;268;121482;-56
2023/03/17 09:32:19;;;;;;;5.80;3.80;;;;;;;19.33;33.01;101365.54;102478;279;104379;-55
2023/03/17 09:34:59;;;;;;;5.70;4.10;;;;;;;19.23;31.14;101365.02;102533;279;115209;-60
2023/03/17 09:37:38;;;;;;;5.90;4.40;;;;;;;18.80;32.17;101362.36;102481;279;94382;-61
2023/03/17 09:40:20;;;;;;;7.00;4.30;;;;;;;18.51;31.17;101357.02;102547;279;98192;-59
2023/03/17 09:43:08;;;;;;;7.10;4.30;;;;;;;18.48;32.32;101349.25;102537;279;119689;-61
2023/03/17 09:45:45;;;;;;;8.20;4.30;;;;;;;18.08;31.51;101345.27;102537;279;104629;-61
2023/03/17 09:48:52;;;;;;;6.00;4.20;;;;;;;17.79;31.73;101342.98;102499;279;115045;-60
2023/03/17 09:51:32;;;;;;;6.80;4.20;;;;;;;17.80;32.37;101336.52;102509;279;94964;-57
2023/03/17 09:54:17;;;;;;;6.50;3.60;;;;;;;17.31;32.70;101331.00;102531;279;96733;-63
2023/03/17 09:57:00;;;;;;;5.50;3.90;;;;;;;16.90;31.70;101327.81;102486;279;118464;-61
2023/03/17 09:59:42;;;;;;;7.50;4.50;;;;;;;15.96;33.32;101323.55;102520;279;105826;-63
2023/03/17 10:02:29;;;;;;;8.40;3.30;;;;;;;15.60;33.25;101322.98;102494;279;113484;-59
2023/03/17 10:05:20;;;;;;;7.60;4.30;;;;;;;15.07;33.70;101320.94;102472;279;94911;-57
2023/03/17 10:08:06;;;;;;;6.30;3.80;;;;;;;14.44;33.95;101323.99;102539;279;97777;-57
2023/03/17 10:10:51;;;;;;;7.00;3.80;;;;;;;13.91;34.39;101320.33;102522;279;121288;-61
2023/03/17 10:13:50;;;;;;;7.60;3.90;;;;;;;13.59;34.68;101323.18;102520;279;105298;-61
2023/03/17 10:16:37;;;;;;;7.10;4.20;;;;;;;13.00;34.84;101317.45;102508;279;115611;-57
2023/03/17 10:19:26;;;;;;;6.60;3.80;;;;;;;12.82;34.98;101314.29;102493;279;95048;-58
2023/03/17 10:22:12;;;;;;;5.50;3.70;;;;;;;12.39;35.40;101313.35;102545;279;98426;-63
2023/03/17 10:24:57;;;;;;;7.50;4.10;;;;;;;12.11;35.82;101311.26;102511;279;119892;-58
2023/03/17 10:27:37;;;;;;;7.00;3.70;;;;;;;12.15;36.28;101309.30;102527;279;105866;-56
2023/03/17 10:30:20;;;;;;;9.90;4.00;;;;;;;11.93;35.78;101314.92;102473;279;115014;-62
2023/03/17 10:32:59;;;;;;;13.40;4.90;;;;;;;11.59;35.87;101306.80;102514;279;94213;-63
2023/03/17 10:35:40;;;;;;;8.40;3.80;;;;;;;11.39;36.35;101298.45;102549;279;97059;-56
2023/03/17 10:38:23;;;;;;;8.70;4.30;;;;;;;11.55;37.07;101301.48;102482;279;121200;-56
2023/03/17 10:41:14;;;;;;;8.60;4.50;;;;;;;11.54;36.63;101304.11;102557;279;105158;-58
2023/03/17 10:44:00;;;;;;;7.90;5.10;;;;;;;11.10;36.98;101291.04;102508;279;114105;-62
2023/03/17 10:46:41;;;;;;;10.80;4.80;;;;;;;11.04;37.20;101294.83;102517;279;94624;-63
2023/03/17 10:49:22;;;;;;;7.50;4.30;;;;;;;10.84;37.80;101294.36;102531;279;98132;-63
2023/03/17 10:51:59;;;;;;;7.80;4.50;;;;;;;10.95;38.25;101293.48;102511;279;120697;-57
2023/03/17 10:54:39;;;;;;;7.40;5.00;;;;;;;11.02;38.05;101297.08;102494;279;105550;-63
2023/03/17 10:57:19;;;;;;;7.10;4.60;;;;;;;10.93;38.05;101302.88;102499;279;113944;-57
2023/03/17 11:00:00;;;;;;;10.00;5.20;;;;;;;10.83;38.42;101300.41;102505;279;91953;-62
2023/03/17 11:02:48;;;;;;;7.90;4.90;;;;;;;10.70;38.49;101294.88;102552;279;97725;-61
2023/03/17 11:05:27;;;;;;;9.30;5.40;;;;;;;10.66;38.54;101302.88;102483;279;121201;-63
2023/03/17 11:08:11;;;;;;;9.00;5.30;;;;;;;10.48;38.60;101301.03;102541;279;105081;-63
2023/03/17 11:10:56;;;;;;;10.20;5.30;;;;;;;10.40;38.79;101304.36;102502;279;114913;-56
2023/03/17 11:13:39;;;;;;;9.50;5.80;;;;;;;10.38;39.09;101298.20;102476;279;94347;-57
2023/03/17 11:16:27;;;;;;;8.00;4.60;;;;;;;10.35;39.25;101298.17;102549;271;98034;-60
2023/03/17 11:19:13;;;;;;;7.70;5.00;;;;;;;10.39;39.76;101291.21;102490;279;120970;-62
2023/03/17 11:21:59;;;;;;;10.30;5.90;;;;;;;10.17;39.32;101285.36;102544;279;105464;-58
2023/03/17 11:24:47;;;;;;;8.90;5.40;;;;;;;10.15;39.64;101285.60;102526;279;113797;-61
2023/03/17 11:27:31;;;;;;;8.10;5.20;;;;;;;10.20;39.66;101277.50;102531;279;94637;-57
2023/03/17 11:30:28;;;;;;;8.10;5.00;;;;;;;10.22;39.52;101272.77;102524;279;96993;-57
2023/03/17 11:33:14;;;;;;;10.00;4.70;;;;;;;10.28;39.59;101264.02;102578;279;120818;-58
2023/03/17 11:36:00;;;;;;;8.40;5.30;;;;;;;10.41;39.52;101255.20;102539;279;106236;-58
2023/03/17 11:38:43;;;;;;;6.90;4.80;;;;;;;10.47;39.51;101248.19;102518;279;114229;-58
2023/03/17 11:42:00;;;;;;;8.70;4.30;;;;;;;10.36;39.15;101247.96;102501;279;93071;-59
2023/03/17 11:45:21;;;;;;;8.60;4.70;;;;;;;10.21;39.17;101245.35;102312;279;97620;-59
2023/03/17 11:48:21;;;;;;;7.30;4.60;;;;;;;10.25;39.37;101236.95;102252;279;121021;-58
2023/03/17 11:51:04;;;;;;;8.10;3.90;;;;;;;10.25;39.55;101231.98;102539;279;104548;-59
2023/03/17 11:54:03;;;;;;;7.50;4.40;;;;;;;10.24;39.88;101220.52;102533;278;113868;-58
2023/03/17 11:56:46;;;;;;;7.10;5.10;;;;;;;10.36;39.86;101212.96;102547;279;94686;-57
2023/03/17 11:59:36;;;;;;;8.80;4.80;;;;;;;10.29;40.00;101214.77;102529;279;98098;-57
2023/03/17 12:02:28;;;;;;;8.50;5.20;;;;;;;10.28;39.37;101222.44;102503;279;120924;-59
2023/03/17 12:05:07;;;;;;;9.00;4.50;;;;;;;10.34;39.40;101218.50;102513;279;103928;-58
2023/03/17 12:07:52;;;;;;;8.90;4.80;;;;;;;10.23;39.67;101206.08;102499;279;114923;-58
2023/03/17 12:10:35;;;;;;;9.30;4.90;;;;;;;10.31;39.79;101206.40;102498;279;95065;-63
2023/03/17 12:13:19;;;;;;;8.20;5.30;;;;;;;10.31;39.88;101201.41;102398;279;97685;-63
2023/03/17 12:16:02;;;;;;;10.60;5.50;;;;;;;10.24;39.96;101196.31;102523;279;120844;-63